Time;durP1;ratioP1;P1;durP2;ratioP2;P2;SDS_P1;SDS_P2;PMS_P1;PMS_P2;Temp;Humidity;BMP_temperature;BMP_pressure;BME280_temperature;BME280_humidity;BME280_pressure;Samples;Min_cycle;Max_cycle;Signal;HPM_P1;HPM_P2
2022/12/15 00:40:35;;;;;;;15.15;6.80;;;;;;;-5.09;100.00;100766.47;5096953;28;20090;-74
2022/12/15 00:43:00;;;;;;;14.02;8.45;;;;;;;-5.03;100.00;100768.88;5096749;28;20059;-74
2022/12/15 00:46:53;;;;;;;15.77;8.32;;;;;;;-4.96;100.00;100773.03;5096211;28;20446;-75
2022/12/15 00:48:11;;;;;;;13.68;8.82;;;;;;;-4.75;100.00;100775.06;5096007;28;20127;-75
2022/12/15 00:50:52;;;;;;;15.85;9.00;;;;;;;-4.61;100.00;100781.56;5096785;28;20123;-75
2022/12/15 01:20:41;;;;;;;19.10;10.75;;;;;;;-4.40;100.00;100771.44;5094546;28;20032;-76
2022/12/15 01:23:07;;;;;;;20.17;9.88;;;;;;;-4.49;100.00;100777.75;5077106;28;20032;-75
2022/12/15 01:25:32;;;;;;;20.00;9.38;;;;;;;-4.59;100.00;100773.72;5095303;28;20028;-76
2022/12/15 01:27:57;;;;;;;14.98;9.15;;;;;;;-4.72;100.00;100786.19;5095519;28;20089;-76
2022/12/15 01:30:25;;;;;;;14.80;9.30;;;;;;;-4.85;100.00;100790.00;5095578;28;20255;-76
2022/12/15 01:32:51;;;;;;;18.08;9.63;;;;;;;-4.96;100.00;100790.31;5095404;28;20472;-76
2022/12/15 01:35:17;;;;;;;14.20;9.15;;;;;;;-5.00;100.00;100797.34;5060775;28;20379;-76
2022/12/15 01:37:43;;;;;;;18.15;9.80;;;;;;;-5.09;100.00;100794.13;5095333;28;20028;-75
2022/12/15 01:42:57;;;;;;;16.23;8.82;;;;;;;-5.33;100.00;100804.25;5096224;28;20081;-75
2022/12/15 01:45:22;;;;;;;16.33;8.68;;;;;;;-5.42;100.00;100791.50;5095057;28;20059;-75
2022/12/15 01:47:48;;;;;;;14.40;8.40;;;;;;;-5.49;100.00;100804.63;5095124;28;20461;-75
2022/12/15 01:50:13;;;;;;;14.95;8.48;;;;;;;-5.58;100.00;100797.09;5095159;28;20043;-75
2022/12/15 01:52:39;;;;;;;16.85;8.52;;;;;;;-5.64;100.00;100799.84;5095088;28;20028;-75
2022/12/15 01:55:05;;;;;;;23.13;10.07;;;;;;;-5.65;100.00;100808.50;5077761;28;20456;-75
2022/12/15 01:57:34;;;;;;;12.60;8.63;;;;;;;-5.69;100.00;100809.44;5094728;28;20056;-75
2022/12/15 02:00:01;;;;;;;17.15;9.48;;;;;;;-5.73;100.00;100816.44;5095239;28;20024;-75
2022/12/15 02:02:29;;;;;;;18.98;10.27;;;;;;;-5.78;100.00;100820.88;5076307;28;20040;-75
2022/12/15 02:04:57;;;;;;;16.67;9.18;;;;;;;-5.78;100.00;100828.66;5094834;28;20463;-76
2022/12/15 02:07:23;;;;;;;19.58;10.75;;;;;;;-5.71;100.00;100831.97;5094404;28;20085;-75
2022/12/15 02:09:51;;;;;;;19.60;9.75;;;;;;;-5.73;100.00;100823.34;5095253;28;20023;-74
2022/12/15 02:12:40;;;;;;;14.27;8.52;;;;;;;-5.78;100.00;100823.47;5095262;28;20106;-74
2022/12/15 02:15:24;;;;;;;18.90;10.20;;;;;;;-5.82;100.00;100823.56;5094639;28;20027;-74
2022/12/15 02:18:00;;;;;;;19.27;9.90;;;;;;;-5.85;100.00;100824.53;5094194;28;20094;-74
2022/12/15 02:20:38;;;;;;;17.23;9.32;;;;;;;-5.88;100.00;100830.63;5095134;28;20050;-75
2022/12/15 02:23:27;;;;;;;14.20;9.02;;;;;;;-5.91;100.00;100822.03;5094529;28;20441;-74
2022/12/15 02:26:43;;;;;;;17.50;9.57;;;;;;;-5.96;100.00;100824.72;5095098;28;20073;-75
2022/12/15 02:29:40;;;;;;;15.68;9.23;;;;;;;-6.04;100.00;100818.91;5051689;28;20465;-74
2022/12/15 02:32:13;;;;;;;16.30;9.80;;;;;;;-6.12;100.00;100819.09;5038472;28;20040;-74
2022/12/15 02:35:00;;;;;;;18.15;10.00;;;;;;;-6.13;100.00;100825.16;5094692;28;20441;-75
2022/12/15 02:37:35;;;;;;;21.08;9.05;;;;;;;-6.16;100.00;100824.38;5094364;28;20035;-75
2022/12/15 02:40:01;;;;;;;15.65;8.75;;;;;;;-6.18;100.00;100826.97;5094229;28;20035;-74
2022/12/15 02:42:29;;;;;;;17.55;9.35;;;;;;;-6.22;100.00;100827.94;5094482;28;20032;-75
2022/12/15 02:45:07;;;;;;;18.80;9.68;;;;;;;-6.24;100.00;100827.97;5093995;28;20032;-75
2022/12/15 02:47:53;;;;;;;17.08;9.55;;;;;;;-6.24;100.00;100827.09;5094236;28;20024;-75
2022/12/15 02:50:40;;;;;;;22.48;10.57;;;;;;;-6.23;100.00;100821.06;5093912;28;20031;-75
2022/12/15 02:53:42;;;;;;;16.33;9.85;;;;;;;-6.27;100.00;100822.00;5093644;28;20028;-75
2022/12/15 02:56:21;;;;;;;15.00;8.90;;;;;;;-6.32;100.00;100829.03;5093804;28;20398;-75
2022/12/15 02:58:49;;;;;;;17.48;9.77;;;;;;;-6.35;100.00;100840.28;5094358;28;20044;-75
2022/12/15 03:01:28;;;;;;;17.77;10.43;;;;;;;-6.40;100.00;100831.78;5093808;28;20077;-75
2022/12/15 03:03:55;;;;;;;22.23;11.07;;;;;;;-6.35;100.00;100836.84;5094346;28;20128;-75
2022/12/15 03:06:23;;;;;;;22.67;11.60;;;;;;;-6.35;100.00;100839.44;5093927;28;20210;-75
2022/12/15 03:08:48;;;;;;;19.27;11.00;;;;;;;-6.37;100.00;100831.72;5093951;28;20032;-75
2022/12/15 03:11:14;;;;;;;27.15;13.35;;;;;;;-6.26;100.00;100834.06;5093864;28;20028;-74
2022/12/15 03:13:39;;;;;;;25.42;13.10;;;;;;;-6.14;100.00;100828.63;5094138;28;20363;-76
2022/12/15 03:16:05;;;;;;;27.92;14.68;;;;;;;-6.01;100.00;100829.22;5093113;28;20101;-74
2022/12/15 03:18:30;;;;;;;28.35;15.02;;;;;;;-5.91;100.00;100837.59;5075936;28;20032;-75
2022/12/15 03:20:55;;;;;;;24.58;14.88;;;;;;;-5.82;100.00;100831.34;5075470;28;20068;-74
2022/12/15 03:23:21;;;;;;;21.98;12.60;;;;;;;-5.77;100.00;100829.53;5093518;28;20028;-75
2022/12/15 03:25:47;;;;;;;21.88;13.07;;;;;;;-5.74;100.00;100835.47;5093399;28;20039;-75
2022/12/15 03:28:13;;;;;;;22.77;11.90;;;;;;;-5.72;100.00;100835.44;5093991;28;20027;-75
2022/12/15 03:30:38;;;;;;;22.90;12.68;;;;;;;-5.73;100.00;100836.31;5093868;28;20036;-75
2022/12/15 03:33:04;;;;;;;32.15;14.02;;;;;;;-5.69;100.00;100844.00;5093447;28;20119;-75
2022/12/15 03:35:32;;;;;;;27.65;13.98;;;;;;;-5.64;100.00;100845.63;5093348;28;20081;-75
2022/12/15 03:37:57;;;;;;;24.70;14.00;;;;;;;-5.60;100.00;100842.91;5092947;28;20058;-75
2022/12/15 03:40:22;;;;;;;24.17;14.10;;;;;;;-5.59;100.00;100843.78;5093465;28;20520;-75
2022/12/15 03:42:48;;;;;;;34.63;16.00;;;;;;;-5.54;100.00;100841.94;5093046;28;20118;-76
2022/12/15 03:45:18;;;;;;;27.50;15.57;;;;;;;-5.46;100.00;100847.81;5093805;28;20117;-76
2022/12/15 03:47:44;;;;;;;27.23;13.05;;;;;;;-5.37;100.00;100841.53;5093191;28;20040;-76
2022/12/15 03:50:11;;;;;;;24.65;13.55;;;;;;;-5.36;100.00;100836.31;5093333;28;20475;-75
2022/12/15 03:52:37;;;;;;;24.50;12.68;;;;;;;-5.37;100.00;100841.53;5093757;28;20036;-75
2022/12/15 03:55:04;;;;;;;29.75;12.95;;;;;;;-5.44;100.00;100842.56;5093692;28;20464;-75
2022/12/15 03:57:30;;;;;;;18.55;11.57;;;;;;;-5.57;100.00;100845.47;5092889;28;20048;-75
2022/12/15 03:59:55;;;;;;;19.50;11.85;;;;;;;-5.68;100.00;100845.69;5093196;28;20036;-75
2022/12/15 04:02:21;;;;;;;21.02;12.55;;;;;;;-5.74;100.00;100845.00;5074796;28;20032;-76
2022/12/15 04:04:47;;;;;;;23.58;12.73;;;;;;;-5.78;100.00;100840.78;5093552;28;20468;-77
2022/12/15 04:07:13;;;;;;;21.95;12.75;;;;;;;-5.80;100.00;100845.97;5074889;28;20130;-75
2022/12/15 04:09:38;;;;;;;23.50;13.52;;;;;;;-5.79;100.00;100845.09;5074810;28;20557;-75
2022/12/15 04:12:03;;;;;;;24.02;13.50;;;;;;;-5.77;100.00;100843.31;5074727;28;20111;-76
2022/12/15 04:14:29;;;;;;;27.42;13.13;;;;;;;-5.74;100.00;100845.84;5075414;28;20036;-76
2022/12/15 04:16:55;;;;;;;26.20;13.85;;;;;;;-5.74;100.00;100845.00;5092942;28;20072;-74
2022/12/15 04:22:05;;;;;;;21.30;11.93;;;;;;;-5.85;100.00;100838.31;5092983;28;20047;-75
2022/12/15 05:32:51;;;;;;;14.13;9.25;;;;;;;-5.08;100.00;100864.16;5095756;28;20098;-75
2022/12/15 05:35:16;;;;;;;17.70;8.98;;;;;;;-4.99;100.00;100868.25;5095761;28;20040;-75
2022/12/15 05:37:42;;;;;;;15.90;9.20;;;;;;;-4.89;100.00;100871.47;5095972;28;20039;-74
2022/12/15 05:40:08;;;;;;;18.98;9.48;;;;;;;-4.83;100.00;100873.91;5077380;28;20105;-75
2022/12/15 05:42:33;;;;;;;17.67;9.45;;;;;;;-4.78;100.00;100872.03;5077240;28;20036;-75
2022/12/15 05:44:58;;;;;;;13.82;8.63;;;;;;;-4.73;100.00;100879.69;5095191;28;20028;-74
2022/12/15 05:47:24;;;;;;;17.08;9.40;;;;;;;-4.75;100.00;100881.50;5095336;28;20166;-77
2022/12/15 05:49:50;;;;;;;15.05;8.52;;;;;;;-4.77;100.00;100889.31;5095400;28;20122;-77
2022/12/15 05:52:15;;;;;;;12.20;8.10;;;;;;;-4.82;100.00;100884.25;5095220;28;20067;-75
2022/12/15 05:54:41;;;;;;;15.00;8.93;;;;;;;-4.83;100.00;100886.91;5095447;28;20085;-76
2022/12/15 05:57:06;;;;;;;20.27;9.52;;;;;;;-4.73;100.00;100887.50;5094821;28;20368;-76
2022/12/15 05:59:32;;;;;;;14.00;8.00;;;;;;;-4.68;100.00;100889.06;5095631;28;20119;-76
2022/12/15 06:01:57;;;;;;;12.70;8.55;;;;;;;-4.68;100.00;100891.69;5095496;28;20024;-76
2022/12/15 06:04:23;;;;;;;14.88;8.48;;;;;;;-4.63;100.00;100896.75;5094977;28;20035;-76
2022/12/15 06:06:48;;;;;;;14.45;8.40;;;;;;;-4.52;100.00;100897.31;5076461;28;20111;-75
2022/12/15 06:09:14;;;;;;;13.27;8.63;;;;;;;-4.44;100.00;100895.34;5095315;28;20153;-76
2022/12/15 06:11:39;;;;;;;16.65;8.63;;;;;;;-4.39;100.00;100902.16;5095153;28;20028;-75
2022/12/15 06:14:05;;;;;;;14.23;7.95;;;;;;;-4.35;100.00;100896.84;5095107;28;20028;-77
2022/12/15 06:16:31;;;;;;;19.08;9.05;;;;;;;-4.23;100.00;100902.59;5094757;28;20032;-76
2022/12/15 06:18:59;;;;;;;11.38;7.57;;;;;;;-4.13;100.00;100898.84;5094867;28;20456;-76
2022/12/15 06:21:28;;;;;;;17.75;8.65;;;;;;;-4.03;100.00;100904.63;5094729;28;20028;-76
2022/12/15 06:23:54;;;;;;;23.90;7.97;;;;;;;-3.99;100.00;100909.69;5095257;28;20053;-76
2022/12/15 06:26:21;;;;;;;13.32;8.05;;;;;;;-3.92;100.00;100908.63;5094749;28;20084;-75
2022/12/15 06:28:48;;;;;;;16.45;7.57;;;;;;;-3.86;100.00;100906.75;5094446;28;20039;-77
2022/12/15 06:31:21;;;;;;;10.02;6.63;;;;;;;-3.86;100.00;100904.16;5095310;28;20020;-76
2022/12/15 06:33:47;;;;;;;13.80;8.15;;;;;;;-3.82;100.00;100905.75;5077425;28;20040;-75
2022/12/15 06:36:14;;;;;;;12.35;7.65;;;;;;;-3.83;100.00;100904.91;5094113;28;20024;-76
2022/12/15 06:38:43;;;;;;;12.23;7.10;;;;;;;-3.90;100.00;100904.25;5094174;28;20028;-76
2022/12/15 06:41:14;;;;;;;14.18;6.53;;;;;;;-3.93;100.00;100917.31;5093998;28;20072;-77
2022/12/15 06:43:40;;;;;;;8.13;5.90;;;;;;;-3.95;100.00;100910.47;5094334;28;20081;-77
2022/12/15 06:46:06;;;;;;;14.63;6.70;;;;;;;-3.99;100.00;100909.69;5093665;28;20544;-77
2022/12/15 06:48:31;;;;;;;15.52;8.02;;;;;;;-4.03;100.00;100907.22;5093861;28;20030;-76
2022/12/15 06:51:02;;;;;;;21.90;6.78;;;;;;;-4.09;100.00;100905.66;5093734;28;20063;-76
2022/12/15 06:53:28;;;;;;;15.00;6.47;;;;;;;-4.15;100.00;100916.22;5093692;28;20077;-76
2022/12/15 06:55:59;;;;;;;11.93;7.30;;;;;;;-4.21;100.00;100919.88;5094239;28;20028;-76
2022/12/15 06:58:24;;;;;;;14.55;6.88;;;;;;;-4.25;100.00;100918.25;5093858;28;20043;-76
2022/12/15 07:00:49;;;;;;;18.80;7.18;;;;;;;-4.22;100.00;100914.69;5094098;28;20020;-75
2022/12/15 07:03:17;;;;;;;14.45;6.75;;;;;;;-4.19;100.00;100917.22;5093726;28;20112;-76
2022/12/15 07:05:43;;;;;;;13.68;6.82;;;;;;;-4.12;100.00;100911.81;5093576;28;20062;-77
2022/12/15 07:08:11;;;;;;;13.40;6.60;;;;;;;-4.11;100.00;100908.28;5093355;28;20024;-75
2022/12/15 07:10:40;;;;;;;16.50;6.47;;;;;;;-4.15;100.00;100917.09;5093834;28;20503;-75
2022/12/15 07:13:09;;;;;;;12.20;6.38;;;;;;;-4.22;100.00;100917.28;5075754;28;20020;-74
2022/12/15 07:15:35;;;;;;;10.05;5.70;;;;;;;-4.29;100.00;100916.63;5093216;28;20476;-77
2022/12/15 07:18:01;;;;;;;12.77;6.57;;;;;;;-4.33;100.00;100915.00;5093276;28;20070;-77
2022/12/15 07:20:26;;;;;;;21.80;6.68;;;;;;;-4.37;100.00;100914.22;5093378;28;20416;-76
2022/12/15 07:22:52;;;;;;;15.50;7.20;;;;;;;-4.34;100.00;100926.28;5075396;28;20040;-73
2022/12/15 07:25:18;;;;;;;17.67;7.80;;;;;;;-4.28;100.00;100923.53;5093016;28;20078;-76
2022/12/15 07:27:44;;;;;;;14.40;7.13;;;;;;;-4.22;100.00;100923.34;5093423;28;20101;-76
2022/12/15 07:30:11;;;;;;;18.52;7.78;;;;;;;-4.16;100.00;100920.59;5093456;28;20063;-76
2022/12/15 07:32:36;;;;;;;18.67;7.57;;;;;;;-4.09;100.00;100926.44;5093269;28;20044;-75
2022/12/15 07:35:04;;;;;;;15.07;7.45;;;;;;;-3.99;100.00;100927.88;5093284;28;20035;-77
2022/12/15 07:37:30;;;;;;;13.95;8.75;;;;;;;-3.66;100.00;100937.34;5092942;28;20107;-77
2022/12/15 07:39:55;;;;;;;20.90;9.85;;;;;;;-3.39;100.00;100939.13;5093004;28;20527;-77
2022/12/15 07:42:21;;;;;;;19.38;9.57;;;;;;;-3.24;100.00;100949.94;5074912;28;20121;-74
2022/12/15 07:44:46;;;;;;;11.40;7.22;;;;;;;-3.07;100.00;100944.22;5093982;28;20460;-75
2022/12/15 07:47:11;;;;;;;12.43;7.82;;;;;;;-2.94;100.00;100936.84;5096336;28;20116;-76
2022/12/15 07:49:37;;;;;;;15.27;8.45;;;;;;;-2.89;100.00;100935.78;5082926;28;20031;-76
2022/12/15 07:52:03;;;;;;;13.93;8.38;;;;;;;-2.91;100.00;100932.41;5095626;28;20039;-76
2022/12/15 07:54:29;;;;;;;12.77;7.85;;;;;;;-2.94;100.00;100931.63;5093828;28;20039;-76
2022/12/15 07:56:54;;;;;;;17.85;8.75;;;;;;;-2.94;100.00;100929.91;5093788;28;20067;-77
2022/12/15 07:59:20;;;;;;;23.10;8.18;;;;;;;-2.98;100.00;100935.25;5094077;28;20105;-77
2022/12/15 08:01:45;;;;;;;13.60;7.25;;;;;;;-3.04;100.00;100939.75;5093464;28;20132;-77
2022/12/15 08:04:11;;;;;;;13.93;7.13;;;;;;;-3.07;100.00;100939.00;5093253;28;20460;-77
2022/12/15 08:06:36;;;;;;;15.23;8.32;;;;;;;-3.02;100.00;100950.13;5092940;28;20143;-77
2022/12/15 08:09:02;;;;;;;14.73;6.72;;;;;;;-3.03;100.00;100961.41;5092704;28;20035;-78
2022/12/15 08:11:27;;;;;;;11.50;6.78;;;;;;;-3.07;100.00;100947.66;5092890;28;20123;-77
2022/12/15 08:13:52;;;;;;;12.80;6.43;;;;;;;-3.12;100.00;100946.09;5074547;28;20085;-77
2022/12/15 08:16:18;;;;;;;9.15;6.38;;;;;;;-3.19;100.00;100945.47;5092453;28;20047;-77
2022/12/15 08:18:44;;;;;;;16.83;7.65;;;;;;;-3.25;100.00;100945.66;5074888;28;20511;-77
2022/12/15 08:21:10;;;;;;;14.27;7.30;;;;;;;-3.25;100.00;100948.25;5092539;28;20131;-78
2022/12/15 08:23:37;;;;;;;14.38;7.55;;;;;;;-3.21;100.00;100942.03;5092508;28;20032;-78
2022/12/15 08:26:04;;;;;;;15.60;6.75;;;;;;;-3.21;100.00;100948.13;5092734;28;20078;-78
2022/12/15 08:28:31;;;;;;;13.70;6.82;;;;;;;-3.16;100.00;100953.16;5092223;28;20031;-77
2022/12/15 08:31:01;;;;;;;15.60;6.65;;;;;;;-3.08;100.00;100956.38;5096305;28;20024;-77
2022/12/15 08:33:27;;;;;;;17.58;6.97;;;;;;;-3.01;100.00;100960.47;5097282;28;20039;-76
2022/12/15 08:35:56;;;;;;;12.00;7.20;;;;;;;-2.91;100.00;100974.06;5096696;28;20034;-76
2022/12/15 08:38:22;;;;;;;15.13;7.82;;;;;;;-2.83;100.00;100977.25;5097232;28;20115;-76
2022/12/15 08:40:47;;;;;;;12.48;6.70;;;;;;;-2.78;100.00;100977.09;5096796;28;20115;-74
2022/12/15 08:43:12;;;;;;;15.45;7.13;;;;;;;-2.75;100.00;100968.34;5096901;28;20032;-75
2022/12/15 08:45:39;;;;;;;13.60;7.03;;;;;;;-2.68;100.00;100965.47;5096485;28;20043;-75
2022/12/15 08:48:05;;;;;;;11.20;6.82;;;;;;;-2.58;100.00;100968.66;5096835;28;20032;-76
2022/12/15 08:50:30;;;;;;;12.23;6.80;;;;;;;-2.47;100.00;100967.44;5096389;28;20384;-77
2022/12/15 08:52:56;;;;;;;11.90;7.25;;;;;;;-2.39;100.00;100968.00;5096550;28;20415;-76
2022/12/15 08:55:22;;;;;;;13.55;8.18;;;;;;;-2.32;100.00;100964.28;5096590;28;20472;-78
2022/12/15 08:57:48;;;;;;;13.80;7.22;;;;;;;-2.25;100.00;100973.59;5096527;28;20059;-77
2022/12/15 09:00:14;;;;;;;15.80;9.07;;;;;;;-2.20;100.00;100979.50;5096825;28;20051;-77
2022/12/15 09:02:40;;;;;;;12.43;7.78;;;;;;;-2.15;100.00;100981.94;5096316;28;20358;-77
2022/12/15 09:05:06;;;;;;;14.63;7.53;;;;;;;-2.11;100.00;100985.31;5096352;28;20040;-77
2022/12/15 09:07:31;;;;;;;15.45;7.80;;;;;;;-2.09;100.00;100983.47;5096540;28;20047;-75
2022/12/15 09:09:57;;;;;;;13.93;7.93;;;;;;;-2.07;100.00;100984.28;5096184;28;20030;-77
2022/12/15 09:12:22;;;;;;;14.13;8.00;;;;;;;-2.07;100.00;100982.53;5096070;28;20422;-76
2022/12/15 09:14:47;;;;;;;20.20;8.95;;;;;;;-1.99;100.00;100993.53;5096198;28;20025;-78
2022/12/15 09:17:13;;;;;;;19.65;8.43;;;;;;;-1.97;100.00;100988.25;5096102;28;20028;-79
2022/12/15 09:19:38;;;;;;;14.70;8.80;;;;;;;-1.97;100.00;100985.63;5096307;28;20118;-78
2022/12/15 09:22:06;;;;;;;17.65;9.02;;;;;;;-1.93;100.00;100991.63;5096060;28;20069;-79
2022/12/15 09:24:32;;;;;;;12.60;8.85;;;;;;;-1.84;100.00;100986.91;5095885;28;20032;-76
2022/12/15 09:26:57;;;;;;;18.25;9.00;;;;;;;-1.55;100.00;100984.13;5095748;28;20123;-77
2022/12/15 09:29:22;;;;;;;20.58;10.00;;;;;;;-1.25;100.00;100996.00;5096262;28;20467;-75
2022/12/15 09:31:48;;;;;;;20.80;9.77;;;;;;;-0.96;100.00;101003.59;5077945;28;20032;-76
2022/12/15 09:34:17;;;;;;;17.88;9.38;;;;;;;-0.72;100.00;101005.25;5095389;28;20046;-77
2022/12/15 09:36:43;;;;;;;14.85;8.73;;;;;;;-0.50;100.00;101008.75;5095601;28;20028;-77
2022/12/15 09:39:10;;;;;;;15.85;8.63;;;;;;;-0.35;100.00;101013.31;5095369;28;20028;-77
2022/12/15 09:41:37;;;;;;;15.70;8.20;;;;;;;-0.24;100.00;101011.09;5094298;28;20084;-77
2022/12/15 09:44:09;;;;;;;12.32;8.05;;;;;;;-0.16;100.00;101015.13;5077593;28;20032;-77
2022/12/15 09:46:42;;;;;;;13.40;7.57;;;;;;;-0.07;100.00;101012.16;5095587;28;20040;-76
2022/12/15 09:49:21;;;;;;;12.63;7.28;;;;;;;0.03;100.00;101010.84;5096094;28;20028;-77
2022/12/15 09:51:54;;;;;;;13.82;7.72;;;;;;;0.13;100.00;101014.72;5095912;28;20102;-79
2022/12/15 09:54:22;;;;;;;13.70;7.53;;;;;;;0.20;100.00;101009.25;5095412;28;20059;-77
2022/12/15 09:56:55;;;;;;;14.18;6.82;;;;;;;0.30;100.00;101010.50;5095232;28;20463;-77
2022/12/15 09:59:32;;;;;;;18.20;7.10;;;;;;;0.35;100.00;101004.13;5095765;28;20048;-76
2022/12/15 10:02:16;;;;;;;12.15;5.97;;;;;;;0.41;100.00;101008.25;5095894;28;20087;-79
2022/12/15 10:05:02;;;;;;;13.65;5.80;;;;;;;0.58;100.00;101004.84;5095586;28;20120;-80
2022/12/15 10:07:45;;;;;;;12.07;6.95;;;;;;;0.88;100.00;101010.44;5094928;28;20110;-81
2022/12/15 10:10:18;;;;;;;14.18;7.00;;;;;;;1.29;100.00;101014.63;5095268;28;20363;-80
2022/12/15 10:12:46;;;;;;;17.98;6.15;;;;;;;1.58;100.00;101022.81;5095411;28;20029;-82
2022/12/15 10:15:28;;;;;;;9.85;5.15;;;;;;;1.63;100.00;101033.06;5095052;28;20109;-78
2022/12/15 10:18:01;;;;;;;16.85;5.15;;;;;;;1.59;100.00;101027.97;5095405;28;20067;-83
2022/12/15 10:20:30;;;;;;;9.88;5.40;;;;;;;1.52;100.00;101028.38;5095047;28;20038;-80
2022/12/15 10:23:07;;;;;;;10.85;4.90;;;;;;;1.40;100.00;101032.44;5094881;28;20055;-79
2022/12/15 10:25:33;;;;;;;10.88;5.22;;;;;;;1.28;100.00;101030.44;5094848;28;20107;-78
2022/12/15 10:28:23;;;;;;;14.07;4.88;;;;;;;1.16;100.00;101030.09;5095298;28;20052;-78
2022/12/15 10:31:05;;;;;;;14.75;5.28;;;;;;;1.01;100.00;101026.41;5095273;28;20024;-78
2022/12/15 10:33:36;;;;;;;9.75;5.07;;;;;;;0.91;100.00;101025.19;5094732;28;20035;-78
2022/12/15 10:36:09;;;;;;;14.67;5.40;;;;;;;0.81;100.00;101030.00;5094352;28;20028;-78
2022/12/15 10:38:37;;;;;;;13.88;5.63;;;;;;;0.72;100.00;101024.31;5094895;28;20036;-79
2022/12/15 10:41:08;;;;;;;14.98;5.70;;;;;;;0.60;100.00;101023.13;5094469;28;20024;-78
2022/12/15 10:43:35;;;;;;;;;;;;;;;0.59;100.00;101018.81;5094824;28;20016;-77
2022/12/15 10:46:17;;;;;;;13.73;6.60;;;;;;;0.71;100.00;101015.63;5094290;28;19908;-77
2022/12/15 10:48:51;;;;;;;13.80;6.90;;;;;;;0.89;100.00;101016.53;5094154;28;20036;-78
2022/12/15 10:51:43;;;;;;;13.63;6.10;;;;;;;1.15;100.00;101024.91;5094934;28;20100;-77
2022/12/15 10:54:09;;;;;;;15.95;6.35;;;;;;;1.43;100.00;101020.97;5083239;28;20032;-81
2022/12/15 10:56:44;;;;;;;11.48;6.07;;;;;;;1.73;100.00;101031.69;5093888;28;20054;-77
2022/12/15 10:59:35;;;;;;;12.60;5.60;;;;;;;1.83;100.00;101022.41;5094881;28;20052;-80
2022/12/15 11:02:19;;;;;;;8.43;5.57;;;;;;;1.85;100.00;101023.22;5093915;28;20123;-80
2022/12/15 11:05:15;;;;;;;8.50;5.25;;;;;;;1.73;100.00;101021.19;5093918;28;20050;-77
2022/12/15 11:07:43;;;;;;;10.00;5.20;;;;;;;1.63;100.00;101018.19;5093710;28;20031;-77
2022/12/15 11:10:25;;;;;;;10.70;5.15;;;;;;;1.55;100.00;101020.34;5094254;28;20354;-78
2022/12/15 11:12:59;;;;;;;16.73;6.13;;;;;;;1.60;100.00;101013.09;5094030;28;20028;-77
2022/12/15 11:15:36;;;;;;;9.95;5.97;;;;;;;1.79;100.00;101014.78;5093993;28;20063;-76
2022/12/15 11:18:17;;;;;;;11.98;5.93;;;;;;;1.95;100.00;101015.69;5094070;28;20020;-75
2022/12/15 11:20:49;;;;;;;9.32;5.88;;;;;;;2.20;100.00;101020.53;5093941;28;20024;-76
2022/12/15 11:23:31;;;;;;;9.15;5.68;;;;;;;2.34;100.00;101014.53;5094073;28;20032;-75
2022/12/15 11:26:14;;;;;;;12.88;5.88;;;;;;;2.43;100.00;101016.69;5094188;28;20451;-76
2022/12/15 11:28:45;;;;;;;9.13;5.93;;;;;;;2.80;100.00;101014.66;5093506;28;20031;-76
2022/12/15 11:31:36;;;;;;;11.27;5.35;;;;;;;3.20;100.00;101008.97;5094039;28;20028;-77
2022/12/15 11:34:02;;;;;;;11.38;5.13;;;;;;;3.28;100.00;101017.25;5093296;28;20533;-78
2022/12/15 11:36:40;;;;;;;15.15;5.22;;;;;;;3.18;100.00;101010.84;5093545;28;20495;-79
2022/12/15 11:39:44;;;;;;;11.40;5.25;;;;;;;3.33;100.00;101011.75;5093890;28;20028;-79
2022/12/15 11:42:39;;;;;;;10.55;5.15;;;;;;;3.48;100.00;101013.50;5089905;28;20039;-78
2022/12/15 11:45:26;;;;;;;10.57;4.93;;;;;;;3.46;100.00;101015.38;5093054;28;20044;-76
2022/12/15 11:47:58;;;;;;;9.45;4.47;;;;;;;3.49;100.00;101014.31;5094067;28;20093;-77
2022/12/15 11:50:47;;;;;;;10.60;4.50;;;;;;;3.30;100.00;101002.25;5093562;28;20024;-79
2022/12/15 11:53:44;;;;;;;7.57;4.53;;;;;;;3.24;100.00;101004.38;5093797;28;20032;-77
2022/12/15 11:56:35;;;;;;;10.48;4.95;;;;;;;2.95;100.00;101004.25;5092868;28;20061;-77
2022/12/15 11:59:43;;;;;;;9.60;4.45;;;;;;;2.74;100.00;101007.13;5080088;28;20044;-77
2022/12/15 12:02:31;;;;;;;9.52;4.85;;;;;;;2.65;100.00;101002.38;5093498;28;20032;-77
2022/12/15 12:05:02;;;;;;;12.20;4.57;;;;;;;2.51;100.00;101005.75;5093174;28;20028;-78
2022/12/15 12:07:44;;;;;;;8.77;4.45;;;;;;;2.36;100.00;101017.06;5093621;28;20032;-78
2022/12/15 12:10:30;;;;;;;6.50;3.95;;;;;;;2.20;100.00;101014.44;5093687;28;20119;-77
2022/12/15 12:13:14;;;;;;;12.25;4.30;;;;;;;2.07;100.00;101008.97;5093113;28;20031;-78
2022/12/15 12:15:48;;;;;;;11.18;4.68;;;;;;;1.99;100.00;101009.38;5093345;28;20035;-77
2022/12/15 12:19:03;;;;;;;12.23;4.75;;;;;;;1.91;100.00;101003.66;5093357;28;20028;-77
2022/12/15 12:21:34;;;;;;;8.60;4.32;;;;;;;1.77;100.00;100994.72;5050548;28;20060;-78
2022/12/15 12:24:04;;;;;;;15.27;4.68;;;;;;;1.65;100.00;100991.88;5093143;28;20035;-78
2022/12/15 12:26:48;;;;;;;7.55;4.07;;;;;;;1.55;100.00;100983.63;5092867;28;20062;-77
2022/12/15 12:29:20;;;;;;;14.05;4.38;;;;;;;1.53;100.00;100988.94;5092659;28;20137;-77
2022/12/15 12:31:57;;;;;;;;;;;;;;;1.57;100.00;100980.00;5093312;28;20028;-77
2022/12/15 12:34:31;;;;;;;14.35;4.50;;;;;;;1.74;100.00;100981.75;5093351;28;19908;-77
2022/12/15 12:37:25;;;;;;;16.08;4.38;;;;;;;2.04;100.00;100975.84;5092997;28;20094;-76
2022/12/15 12:39:52;;;;;;;10.32;3.58;;;;;;;2.77;100.00;100970.16;5093026;28;20051;-77
2022/12/15 12:42:33;;;;;;;10.70;3.35;;;;;;;3.59;100.00;100970.75;5093089;28;20033;-77
2022/12/15 12:45:01;;;;;;;7.78;3.00;;;;;;;4.55;100.00;100960.53;5094635;28;20082;-78
2022/12/15 12:47:35;;;;;;;11.75;3.10;;;;;;;5.77;100.00;100954.31;5093990;28;20034;-77
2022/12/15 12:50:12;;;;;;;12.20;2.97;;;;;;;7.25;100.00;100959.69;5093028;28;20051;-78
2022/12/15 12:52:37;;;;;;;8.55;2.40;;;;;;;8.43;100.00;100957.69;5092605;28;20024;-76
2022/12/15 12:55:11;;;;;;;9.05;2.63;;;;;;;9.39;100.00;100949.09;5093317;28;20036;-77
2022/12/15 12:57:44;;;;;;;6.47;2.20;;;;;;;9.95;100.00;100943.41;5092586;28;20044;-77
2022/12/15 13:00:14;;;;;;;12.70;2.45;;;;;;;10.18;88.68;100948.56;5092452;28;20043;-77
2022/12/15 13:02:46;;;;;;;12.45;2.40;;;;;;;10.69;90.16;100941.44;5092496;28;20039;-77
2022/12/15 13:05:33;;;;;;;8.35;2.03;;;;;;;10.89;77.11;100937.00;5092690;28;20028;-77
2022/12/15 13:08:04;;;;;;;8.85;2.63;;;;;;;11.18;75.74;100933.50;5092950;28;20036;-77
2022/12/15 13:10:30;;;;;;;;;;;;;;;11.14;65.92;100930.31;5092445;28;20028;-78
2022/12/15 13:12:58;;;;;;;9.07;2.33;;;;;;;11.13;74.88;100933.94;5092417;28;19912;-76
2022/12/15 13:15:26;;;;;;;9.27;1.88;;;;;;;10.90;61.70;100941.38;5075378;28;20039;-76
2022/12/15 13:17:57;;;;;;;6.85;2.40;;;;;;;10.87;64.67;100937.16;5095855;28;20028;-76
2022/12/15 13:20:24;;;;;;;6.80;2.05;;;;;;;10.45;60.24;100936.50;5096031;28;20057;-76
2022/12/15 13:22:50;;;;;;;5.18;1.60;;;;;;;9.53;55.32;100933.69;5096296;28;20024;-76
2022/12/15 13:25:34;;;;;;;5.47;1.60;;;;;;;8.51;59.03;100932.38;5095537;28;20400;-76
2022/12/15 13:28:09;;;;;;;5.65;1.17;;;;;;;7.64;60.58;100936.44;5096411;28;20428;-76
2022/12/15 13:30:34;;;;;;;7.97;1.13;;;;;;;6.85;62.71;100929.09;5077727;28;20035;-76
2022/12/15 13:33:18;;;;;;;4.47;0.95;;;;;;;6.43;72.19;100919.81;5095427;28;20028;-75
2022/12/15 13:35:44;;;;;;;1.92;0.70;;;;;;;6.33;65.14;100917.00;5096462;28;20424;-76
2022/12/15 13:38:17;;;;;;;3.65;1.20;;;;;;;6.02;68.38;100919.19;5095546;28;20119;-75
2022/12/15 13:40:46;;;;;;;3.90;1.40;;;;;;;5.79;67.56;100928.66;5095939;28;20032;-76
2022/12/15 13:43:44;;;;;;;3.30;1.20;;;;;;;5.33;69.35;100924.72;5095472;28;20061;-76
2022/12/15 13:46:16;;;;;;;0.90;0.77;;;;;;;4.92;70.92;100921.22;5076797;28;20375;-76
2022/12/15 13:48:50;;;;;;;4.30;0.98;;;;;;;4.46;75.79;100921.56;5095587;28;20030;-76
2022/12/15 13:51:41;;;;;;;5.07;0.90;;;;;;;4.29;77.16;100929.72;5095712;28;20021;-76
2022/12/15 13:54:07;;;;;;;5.43;0.75;;;;;;;4.27;79.32;100921.03;5081373;28;20047;-76